Vb Anibal — EBWG — position and weather

sailwx.info

Track history (hours):
 
Tides and Currents Weather Stations Pressure Air Temp Water Temp Dewpoint Dewpoint Depression Visibility Wind Speed Wind Dir Waves Ship Positions

Vb Anibal

Last reported at 2017-May-21 02:48 UTC. Time now 2017-May-23 17:06 UTC.
Position N 37°33' W 000°53'.

Length 30 m; draft 4.3 m.

Type: Tug. MMSI: 224049240.

Date/timePositionNaut miles runAvg speedWind from/ knotsBaromVisibWave heightAir tempDewpointWater temp
2017-May-21 02:48N 37°33' W 000°53'3 9.8
2017-May-21 02:27N 37°32' W 000°49'4 9.6
2017-May-21 02:00N 37°33' W 000°43'5 9.8
2017-May-21 01:29N 37°33' W 000°37'4 9.3
2017-May-21 01:01N 37°36' W 000°33'510.1
2017-May-21 00:31N 37°40' W 000°29'510.1
2017-May-20 23:59N 37°44' W 000°25'17 9.6
2017-May-20 22:13N 37°59' W 000°13'2 9.8
2017-May-20 22:00N 38°01' W 000°12'9 9.7
2017-May-20 21:04N 38°09' W 000°07'2 9.5
2017-May-20 20:49N 38°11' W 000°06'9 9.5
2017-May-20 19:53N 38°18' E 000°01'410.1
2017-May-20 19:30N 38°21' E 000°03'5 9.9
2017-May-20 19:00N 38°25' E 000°07'  
2017-May-17 03:40N 39°58' E 000°01'0 0.0
2017-May-17 03:30N 39°58' E 000°01'0 0.0
2017-May-17 03:00N 39°58' E 000°01'0 0.1
2017-May-16 23:02N 39°58' E 000°02'0 0.3
2017-May-16 22:46N 39°58' E 000°02'1 2.6
2017-May-16 22:29N 39°57' E 000°02'1 1.8
2017-May-16 21:58N 39°57' E 000°03'2 3.3
2017-May-16 21:29N 39°58' E 000°01'0 0.6
2017-May-16 21:00N 39°58' E 000°01'1 1.8
2017-May-16 20:26N 39°57' E 000°01'1 0.2
2017-May-16 15:39N 39°58' E 000°01'0 0.0
2017-May-16 15:29N 39°58' E 000°01'1 0.4
2017-May-16 13:40N 39°58' E 000°01'0 0.4
2017-May-16 13:28N 39°58' E 000°02'1 1.4
2017-May-16 13:00N 39°58' E 000°01'0 0.0
2017-May-16 09:37N 39°58' E 000°01'0 0.0
2017-May-16 09:23N 39°58' E 000°01'0 0.0
2017-May-16 08:08N 39°58' E 000°01'0 0.0
2017-May-16 08:00N 39°58' E 000°01'0 0.0
2017-May-16 07:30N 39°58' E 000°01'0 0.0
2017-May-16 05:42N 39°58' E 000°01'0 0.0
2017-May-16 05:15N 39°58' E 000°01'0 0.0
2017-May-16 05:00N 39°58' E 000°01'0 0.0
2017-May-16 04:11N 39°58' E 000°01'1 0.4
2017-May-16 01:14N 39°57' E 000°01'0 0.2
2017-May-16 00:33N 39°58' E 000°01'1 2.9
2017-May-16 00:20N 39°57' E 000°02'1 2.1
2017-May-15 23:37N 39°58' E 000°01'0 0.0
2017-May-15 23:30N 39°58' E 000°01'0 0.0
2017-May-15 22:39N 39°58' E 000°01'0 0.0
2017-May-15 22:05N 39°58' E 000°01'0 0.0
2017-May-15 22:00N 39°58' E 000°01'0 0.3
2017-May-15 20:26N 39°58' E 000°02'0 0.1
2017-May-15 16:44N 39°58' E 000°01'0 0.0
2017-May-15 16:20N 39°58' E 000°01'0 0.0
2017-May-15 15:54N 39°58' E 000°01'0 0.0
2017-May-15 15:27N 39°58' E 000°01'0 0.0
2017-May-15 04:22N 39°58' E 000°01'0 0.0
2017-May-15 03:57N 39°58' E 000°01'0 0.0
2017-May-15 03:05N 39°58' E 000°01'0 0.1
2017-May-15 02:59N 39°58' E 000°01'0 0.0
2017-May-15 02:29N 39°58' E 000°01'0 0.0
2017-May-14 23:08N 39°58' E 000°01'0 0.0
2017-May-14 23:00N 39°58' E 000°01'0 0.0
2017-May-14 12:06N 39°58' E 000°01'0 0.0
2017-May-14 11:05N 39°58' E 000°01'0 0.0
2017-May-14 10:54N 39°58' E 000°01'0 0.0
2017-May-14 10:28N 39°58' E 000°01'  
Track history (hours):
 
Tides and Currents Weather Stations Pressure Air Temp Water Temp Dewpoint Dewpoint Depression Visibility Wind Speed Wind Dir Waves Ship Positions

Vb Anibal

Last reported at 2017-May-21 02:48 UTC. Time now 2017-May-23 17:06 UTC.
Position N 37°33' W 000°53'.

Length 30 m; draft 4.3 m.

Type: Tug. MMSI: 224049240.

Date/timePositionNaut miles runAvg speedWind from/ knotsBaromVisibWave heightAir tempDewpointWater temp
2017-May-21 02:48N 37°33' W 000°53'3 9.8
2017-May-21 02:27N 37°32' W 000°49'4 9.6
2017-May-21 02:00N 37°33' W 000°43'5 9.8
2017-May-21 01:29N 37°33' W 000°37'4 9.3
2017-May-21 01:01N 37°36' W 000°33'510.1
2017-May-21 00:31N 37°40' W 000°29'510.1
2017-May-20 23:59N 37°44' W 000°25'17 9.6
2017-May-20 22:13N 37°59' W 000°13'2 9.8
2017-May-20 22:00N 38°01' W 000°12'9 9.7
2017-May-20 21:04N 38°09' W 000°07'2 9.5
2017-May-20 20:49N 38°11' W 000°06'9 9.5
2017-May-20 19:53N 38°18' E 000°01'410.1
2017-May-20 19:30N 38°21' E 000°03'5 9.9
2017-May-20 19:00N 38°25' E 000°07'  
2017-May-17 03:40N 39°58' E 000°01'0 0.0
2017-May-17 03:30N 39°58' E 000°01'0 0.0
2017-May-17 03:00N 39°58' E 000°01'0 0.1
2017-May-16 23:02N 39°58' E 000°02'0 0.3
2017-May-16 22:46N 39°58' E 000°02'1 2.6
2017-May-16 22:29N 39°57' E 000°02'1 1.8
2017-May-16 21:58N 39°57' E 000°03'2 3.3
2017-May-16 21:29N 39°58' E 000°01'0 0.6
2017-May-16 21:00N 39°58' E 000°01'1 1.8
2017-May-16 20:26N 39°57' E 000°01'1 0.2
2017-May-16 15:39N 39°58' E 000°01'0 0.0
2017-May-16 15:29N 39°58' E 000°01'1 0.4
2017-May-16 13:40N 39°58' E 000°01'0 0.4
2017-May-16 13:28N 39°58' E 000°02'1 1.4
2017-May-16 13:00N 39°58' E 000°01'0 0.0
2017-May-16 09:37N 39°58' E 000°01'0 0.0
2017-May-16 09:23N 39°58' E 000°01'0 0.0
2017-May-16 08:08N 39°58' E 000°01'0 0.0
2017-May-16 08:00N 39°58' E 000°01'0 0.0
2017-May-16 07:30N 39°58' E 000°01'0 0.0
2017-May-16 05:42N 39°58' E 000°01'0 0.0
2017-May-16 05:15N 39°58' E 000°01'0 0.0
2017-May-16 05:00N 39°58' E 000°01'0 0.0
2017-May-16 04:11N 39°58' E 000°01'1 0.4
2017-May-16 01:14N 39°57' E 000°01'0 0.2
2017-May-16 00:33N 39°58' E 000°01'1 2.9
2017-May-16 00:20N 39°57' E 000°02'1 2.1
2017-May-15 23:37N 39°58' E 000°01'0 0.0
2017-May-15 23:30N 39°58' E 000°01'0 0.0
2017-May-15 22:39N 39°58' E 000°01'0 0.0
2017-May-15 22:05N 39°58' E 000°01'0 0.0
2017-May-15 22:00N 39°58' E 000°01'0 0.3
2017-May-15 20:26N 39°58' E 000°02'0 0.1
2017-May-15 16:44N 39°58' E 000°01'0 0.0
2017-May-15 16:20N 39°58' E 000°01'0 0.0
2017-May-15 15:54N 39°58' E 000°01'0 0.0
2017-May-15 15:27N 39°58' E 000°01'0 0.0
2017-May-15 04:22N 39°58' E 000°01'0 0.0
2017-May-15 03:57N 39°58' E 000°01'0 0.0
2017-May-15 03:05N 39°58' E 000°01'0 0.1
2017-May-15 02:59N 39°58' E 000°01'0 0.0
2017-May-15 02:29N 39°58' E 000°01'0 0.0
2017-May-14 23:08N 39°58' E 000°01'0 0.0
2017-May-14 23:00N 39°58' E 000°01'0 0.0
2017-May-14 12:06N 39°58' E 000°01'0 0.0
2017-May-14 11:05N 39°58' E 000°01'0 0.0
2017-May-14 10:54N 39°58' E 000°01'0 0.0
2017-May-14 10:28N 39°58' E 000°01'  

Dump ship's entire track history